Time;durP1;ratioP1;P1;durP2;ratioP2;P2;SDS_P1;SDS_P2;PMS_P1;PMS_P2;Temp;Humidity;BMP_temperature;BMP_pressure;BME280_temperature;BME280_humidity;BME280_pressure;Samples;Min_cycle;Max_cycle;Signal;HPM_P1;HPM_P2
2022/08/09 00:01:49;;;;;;;3.70;1.60;;;;;;;18.65;72.89;102080.41;5033350;28;20508;-67
2022/08/09 00:04:16;;;;;;;3.90;1.90;;;;;;;18.66;73.26;102082.81;5033293;28;20498;-67
2022/08/09 00:06:43;;;;;;;8.60;2.20;;;;;;;18.67;73.57;102084.44;5033382;28;20586;-67
2022/08/09 00:09:11;;;;;;;3.30;1.60;;;;;;;18.72;73.19;102086.25;5047748;22;20505;-71
2022/08/09 00:11:38;;;;;;;4.90;1.97;;;;;;;18.74;72.83;102089.50;4993740;28;20473;-71
2022/08/09 00:14:06;;;;;;;3.30;1.43;;;;;;;18.72;72.76;102086.25;4994028;28;20441;-71
2022/08/09 00:16:34;;;;;;;4.13;1.60;;;;;;;18.76;72.40;102078.97;4993892;28;20452;-71
2022/08/09 00:19:01;;;;;;;4.60;1.93;;;;;;;18.77;72.69;102083.38;4994066;28;20556;-71
2022/08/09 00:21:28;;;;;;;4.03;1.33;;;;;;;18.79;72.85;102081.09;4994217;28;20535;-71
2022/08/09 00:23:55;;;;;;;4.40;2.17;;;;;;;18.80;72.69;102088.19;4993657;28;20961;-71
2022/08/09 00:26:22;;;;;;;3.80;2.00;;;;;;;18.85;73.50;102084.50;4993947;28;20824;-71
2022/08/09 00:28:48;;;;;;;3.17;1.40;;;;;;;18.87;72.89;102077.56;4993863;28;20449;-71
2022/08/09 00:31:15;;;;;;;4.30;1.63;;;;;;;18.90;73.51;102082.44;4994013;28;20571;-73
2022/08/09 00:33:43;;;;;;;4.00;1.67;;;;;;;18.92;73.39;102071.13;4993842;28;20441;-69
2022/08/09 00:36:10;;;;;;;7.67;2.47;;;;;;;18.93;74.24;102074.66;4993555;28;21029;-71
2022/08/09 00:38:38;;;;;;;3.10;1.40;;;;;;;18.93;73.77;102074.66;4993828;28;20445;-71
2022/08/09 00:41:04;;;;;;;9.70;1.70;;;;;;;18.86;73.87;102073.22;4993782;28;20791;-71
2022/08/09 00:43:33;;;;;;;2.73;1.20;;;;;;;18.86;73.69;102075.97;4995642;28;20531;-71
2022/08/09 00:46:00;;;;;;;7.53;1.63;;;;;;;18.88;72.88;102076.44;4997844;28;20484;-71
2022/08/09 00:48:26;;;;;;;3.67;1.50;;;;;;;18.92;72.82;102081.28;4997765;28;20539;-71
2022/08/09 00:50:54;;;;;;;6.80;2.00;;;;;;;18.89;73.29;102074.50;4997592;28;20488;-71
2022/08/09 00:53:21;;;;;;;3.63;1.47;;;;;;;18.92;73.39;102067.56;4997644;28;20540;-71
2022/08/09 00:55:48;;;;;;;3.33;1.60;;;;;;;18.95;73.93;102073.22;4997679;28;20535;-71
2022/08/09 00:58:15;;;;;;;4.10;2.23;;;;;;;18.98;73.71;102069.00;4997304;28;21037;-71
2022/08/09 01:00:43;;;;;;;4.30;1.70;;;;;;;19.01;73.75;102065.63;4997464;28;20551;-71
2022/08/09 01:03:15;;;;;;;3.50;1.60;;;;;;;19.01;74.02;102068.38;4997199;28;20535;-71
2022/08/09 01:05:49;;;;;;;5.67;2.10;;;;;;;19.01;73.70;102073.88;4997220;28;20930;-71
2022/08/09 01:08:27;;;;;;;4.37;1.73;;;;;;;19.04;73.06;102071.28;4997393;28;20425;-71
2022/08/09 01:11:03;;;;;;;5.10;2.00;;;;;;;19.01;73.19;102069.19;4996764;28;20567;-72
2022/08/09 01:13:39;;;;;;;4.50;2.10;;;;;;;19.03;73.39;102080.63;4997256;28;20519;-71
2022/08/09 01:16:09;;;;;;;5.20;1.60;;;;;;;19.06;73.22;102076.44;4996887;28;20787;-70
2022/08/09 01:18:39;;;;;;;2.70;1.10;;;;;;;19.07;73.59;102075.31;4996688;28;20884;-71
2022/08/09 01:21:19;;;;;;;4.20;2.00;;;;;;;19.01;72.91;102076.63;4997204;28;20852;-70
2022/08/09 01:23:56;;;;;;;4.23;2.10;;;;;;;18.96;74.00;102080.31;4996820;28;20515;-69
2022/08/09 01:26:47;;;;;;;3.60;2.00;;;;;;;18.88;74.54;102076.44;4996800;28;20970;-69
2022/08/09 01:29:16;;;;;;;3.87;1.77;;;;;;;18.89;74.47;102074.50;4997003;28;20469;-73
2022/08/09 01:31:44;;;;;;;3.60;2.00;;;;;;;18.90;74.75;102071.44;4996590;28;20998;-73
2022/08/09 01:34:15;;;;;;;4.60;1.93;;;;;;;18.83;74.49;102068.34;4996599;28;21033;-71
2022/08/09 01:36:45;;;;;;;5.07;2.47;;;;;;;18.79;74.44;102075.59;4996916;28;20508;-73
2022/08/09 01:39:13;;;;;;;5.80;2.50;;;;;;;18.76;74.40;102078.97;4996879;28;20499;-73
2022/08/09 01:41:41;;;;;;;4.47;2.03;;;;;;;18.67;74.67;102078.13;4996822;28;20531;-73
2022/08/09 01:44:10;;;;;;;4.13;1.83;;;;;;;18.63;74.80;102079.91;4996462;28;21018;-73
2022/08/09 01:46:41;;;;;;;4.40;2.27;;;;;;;18.64;75.10;102079.59;4996783;28;20532;-73
2022/08/09 01:49:11;;;;;;;3.40;1.53;;;;;;;18.69;76.30;102081.41;4996648;28;20547;-72
2022/08/09 01:51:40;;;;;;;4.30;1.90;;;;;;;18.70;75.79;102072.03;4996327;28;20574;-72
2022/08/09 01:54:08;;;;;;;5.90;2.77;;;;;;;18.69;75.66;102080.56;4995840;28;20540;-72
2022/08/09 01:56:37;;;;;;;4.37;2.27;;;;;;;18.64;75.70;102073.28;4995930;28;20927;-72
2022/08/09 01:59:07;;;;;;;5.63;2.17;;;;;;;18.64;75.79;102081.53;4996477;28;20551;-72
2022/08/09 02:01:37;;;;;;;7.10;2.50;;;;;;;18.62;75.76;102081.84;4996507;28;20524;-72
2022/08/09 02:04:06;;;;;;;7.90;2.13;;;;;;;18.65;75.86;102083.94;4996668;28;20512;-72
2022/08/09 02:07:10;;;;;;;5.40;2.53;;;;;;;18.64;76.24;102079.59;4996461;28;20433;-73
2022/08/09 02:09:42;;;;;;;4.43;1.97;;;;;;;18.64;76.29;102074.09;4996165;28;20531;-72
2022/08/09 02:12:11;;;;;;;5.67;2.83;;;;;;;18.63;76.83;102077.16;4996000;28;20469;-73
2022/08/09 02:14:40;;;;;;;7.27;3.20;;;;;;;18.61;76.85;102074.72;4995976;28;20468;-73
2022/08/09 02:17:10;;;;;;;6.00;2.43;;;;;;;18.62;76.46;102075.53;4996150;28;20451;-71
2022/08/09 02:19:38;;;;;;;4.63;2.30;;;;;;;18.56;76.46;102077.63;4995730;28;20560;-74
2022/08/09 02:22:10;;;;;;;6.07;3.10;;;;;;;18.54;76.99;102082.59;4996033;28;20488;-73
2022/08/09 02:24:38;;;;;;;6.20;3.10;;;;;;;18.54;76.85;102084.56;4996079;28;20432;-74
2022/08/09 02:27:09;;;;;;;5.80;2.07;;;;;;;18.50;76.50;102083.56;4995934;28;20451;-73
2022/08/09 02:29:42;;;;;;;15.40;2.40;;;;;;;18.46;76.58;102079.84;4995815;28;20959;-74
2022/08/09 02:32:12;;;;;;;4.10;2.00;;;;;;;18.43;76.94;102086.78;4995839;28;20469;-73
2022/08/09 02:34:42;;;;;;;4.50;2.00;;;;;;;18.43;77.48;102091.47;4995855;28;20426;-74
2022/08/09 02:37:16;;;;;;;6.53;2.70;;;;;;;18.45;77.39;102090.00;4995817;28;20536;-73
2022/08/09 02:39:49;;;;;;;4.93;2.30;;;;;;;18.46;77.61;102088.91;4995736;28;20464;-73
2022/08/09 02:42:19;;;;;;;7.23;2.77;;;;;;;18.44;77.69;102084.84;4995644;28;20432;-74
2022/08/09 02:44:49;;;;;;;4.17;2.40;;;;;;;18.43;77.69;102086.78;4995682;28;20445;-73
2022/08/09 02:47:19;;;;;;;6.47;2.70;;;;;;;18.43;77.51;102084.03;4995578;28;20479;-73
2022/08/09 02:49:51;;;;;;;7.13;3.27;;;;;;;18.42;78.22;102090.66;4995557;28;20464;-74
2022/08/09 02:52:22;;;;;;;4.70;2.37;;;;;;;18.46;77.97;102085.31;4995436;28;20469;-74
2022/08/09 02:54:50;;;;;;;8.50;3.03;;;;;;;18.48;77.32;102080.34;4995469;28;20432;-73
2022/08/09 02:57:19;;;;;;;10.30;2.90;;;;;;;18.37;77.90;102083.38;4995419;28;20529;-73
2022/08/09 02:59:47;;;;;;;5.90;3.00;;;;;;;18.41;77.87;102087.09;4994994;28;20465;-74
2022/08/09 03:02:18;;;;;;;6.00;3.00;;;;;;;18.47;77.98;102090.50;4995277;28;20452;-73
2022/08/09 03:04:46;;;;;;;11.03;3.50;;;;;;;18.46;78.64;102088.06;4995301;28;20817;-73
2022/08/09 03:07:13;;;;;;;13.93;4.10;;;;;;;18.48;79.34;102078.41;4994974;28;20451;-73
2022/08/09 03:09:42;;;;;;;7.00;3.30;;;;;;;18.49;80.00;102092.94;4994842;28;20523;-73
2022/08/09 03:12:11;;;;;;;9.83;3.73;;;;;;;18.46;80.31;102088.06;4995247;28;20493;-73
2022/08/09 03:14:39;;;;;;;10.40;3.90;;;;;;;18.44;80.58;102099.38;4994857;28;20437;-73
2022/08/09 03:17:06;;;;;;;12.57;4.03;;;;;;;18.38;80.72;102089.69;4994944;28;20453;-73
2022/08/09 03:19:36;;;;;;;11.03;2.70;;;;;;;18.38;80.22;102079.50;4994627;28;20540;-73
2022/08/09 03:22:04;;;;;;;10.93;3.97;;;;;;;18.39;81.33;102086.59;4994592;28;20965;-73
2022/08/09 03:24:30;;;;;;;12.43;4.60;;;;;;;18.38;81.51;102081.44;4994855;28;20532;-73
2022/08/09 03:26:58;;;;;;;13.63;4.00;;;;;;;18.40;80.43;102090.97;4994841;28;20539;-73
2022/08/09 03:29:26;;;;;;;7.13;3.30;;;;;;;18.40;79.97;102093.69;4994238;28;21024;-75
2022/08/09 03:31:54;;;;;;;7.17;3.23;;;;;;;18.33;80.38;102104.34;4994620;28;20481;-74
2022/08/09 03:34:20;;;;;;;11.53;4.23;;;;;;;18.34;80.38;102097.72;4994686;28;20538;-72
2022/08/09 03:36:48;;;;;;;8.73;3.07;;;;;;;18.43;79.69;102096.97;4994663;28;20951;-72
2022/08/09 03:39:15;;;;;;;5.97;3.00;;;;;;;18.45;80.14;102097.44;4994575;28;20475;-74
2022/08/09 03:41:42;;;;;;;6.67;3.27;;;;;;;18.43;80.63;102089.53;4994556;28;20528;-71
2022/08/09 03:44:08;;;;;;;7.93;2.97;;;;;;;18.37;80.89;102099.84;4994556;28;20441;-71
2022/08/09 03:46:35;;;;;;;5.20;2.47;;;;;;;18.37;80.39;102101.75;4994539;28;20495;-71
2022/08/09 03:49:03;;;;;;;5.83;3.40;;;;;;;18.41;79.94;102102.75;4994091;28;20560;-71
2022/08/09 03:51:30;;;;;;;6.53;2.80;;;;;;;18.40;79.89;102101.94;4994445;28;20453;-71
2022/08/09 03:53:59;;;;;;;10.40;2.80;;;;;;;18.45;80.73;102106.47;4994432;28;20523;-71
2022/08/09 03:56:26;;;;;;;5.63;3.03;;;;;;;18.46;80.56;102099.03;4994405;28;20444;-71
2022/08/09 03:58:53;;;;;;;7.90;3.30;;;;;;;18.49;80.81;102110.19;4994184;28;20479;-71
2022/08/09 04:01:20;;;;;;;6.80;2.50;;;;;;;18.49;80.64;102109.41;4994248;28;20467;-71
2022/08/09 04:03:48;;;;;;;5.43;3.03;;;;;;;18.48;80.83;102108.59;4994250;28;20447;-71
2022/08/09 04:06:15;;;;;;;6.73;3.00;;;;;;;18.45;80.70;102111.16;4994200;28;20487;-71
2022/08/09 04:08:41;;;;;;;8.07;3.97;;;;;;;18.50;80.41;102122.78;4993659;28;20523;-71
2022/08/09 04:11:10;;;;;;;6.83;2.93;;;;;;;18.50;79.81;102116.50;4993810;28;20436;-71
2022/08/09 04:13:36;;;;;;;9.53;4.03;;;;;;;18.52;81.23;102111.50;4994023;28;20480;-71
2022/08/09 04:16:03;;;;;;;5.57;2.70;;;;;;;18.55;80.53;102125.41;4993686;28;20447;-71
2022/08/09 04:18:30;;;;;;;4.63;2.20;;;;;;;18.54;80.86;102122.97;4993365;28;20527;-71
2022/08/09 04:20:56;;;;;;;7.50;2.57;;;;;;;18.55;80.60;102122.69;4994051;28;20445;-71
2022/08/09 04:23:23;;;;;;;5.33;3.43;;;;;;;18.59;80.25;102131.06;4994225;28;20443;-71
2022/08/09 04:25:50;;;;;;;5.50;2.63;;;;;;;18.61;80.14;102128.81;4993645;28;20955;-71
2022/08/09 04:28:20;;;;;;;4.50;2.40;;;;;;;18.60;79.22;102130.75;4993941;28;20440;-71
2022/08/09 04:30:46;;;;;;;8.70;3.43;;;;;;;18.61;79.11;102128.81;4993516;28;21041;-70
2022/08/09 04:33:13;;;;;;;16.87;3.37;;;;;;;18.61;79.45;102139.81;4993461;28;20934;-71
2022/08/09 04:35:41;;;;;;;5.10;2.60;;;;;;;18.65;79.22;102132.56;4994018;28;20451;-71
2022/08/09 04:38:07;;;;;;;5.50;2.50;;;;;;;18.68;78.98;102129.16;4993784;28;20452;-71
2022/08/09 04:40:49;;;;;;;6.87;2.90;;;;;;;18.69;79.24;102139.06;4993736;28;20507;-70
2022/08/09 04:43:16;;;;;;;5.80;2.60;;;;;;;18.76;78.72;102139.38;4993475;28;20520;-71
2022/08/09 04:45:44;;;;;;;3.80;2.17;;;;;;;18.83;78.66;102141.69;4993808;28;20439;-72
2022/08/09 04:48:12;;;;;;;6.77;2.13;;;;;;;18.87;78.42;102143.47;4993734;28;20445;-71
2022/08/09 04:50:39;;;;;;;5.30;2.83;;;;;;;18.93;77.53;102135.06;4993634;28;20467;-72
2022/08/09 04:53:06;;;;;;;5.03;2.60;;;;;;;18.97;77.78;102147.03;4993619;28;20485;-72
2022/08/09 04:55:33;;;;;;;8.63;2.10;;;;;;;18.94;77.85;102153.16;4993278;28;20444;-71
2022/08/09 04:58:00;;;;;;;5.13;2.67;;;;;;;18.98;77.79;102149.47;4993392;28;20453;-73
2022/08/09 05:00:26;;;;;;;4.50;2.40;;;;;;;19.03;77.93;102148.50;4993522;28;20552;-70
2022/08/09 05:02:55;;;;;;;4.47;2.53;;;;;;;18.99;77.67;102153.00;4993654;28;20441;-72
2022/08/09 05:05:22;;;;;;;6.03;2.70;;;;;;;19.02;77.69;102158.69;4993587;28;20507;-73
2022/08/09 05:07:49;;;;;;;6.53;3.07;;;;;;;19.09;78.11;102160.97;4993573;28;20524;-74
2022/08/09 05:10:15;;;;;;;4.83;2.30;;;;;;;19.06;78.46;102161.59;4993086;28;20480;-73
2022/08/09 05:12:42;;;;;;;4.80;2.37;;;;;;;19.09;78.30;102166.47;4993425;28;20480;-74
2022/08/09 05:15:09;;;;;;;4.90;2.47;;;;;;;19.12;77.65;102163.91;4993471;28;20441;-74
2022/08/09 05:17:36;;;;;;;4.57;2.87;;;;;;;19.18;78.20;102159.03;4993459;28;20528;-74
2022/08/09 05:20:05;;;;;;;5.30;2.13;;;;;;;19.24;78.83;102167.94;4993378;28;20504;-74
2022/08/09 05:22:32;;;;;;;4.90;3.17;;;;;;;19.24;78.05;102168.75;4993419;28;20443;-75
2022/08/09 05:24:59;;;;;;;4.17;2.20;;;;;;;19.19;76.42;102171.66;4993015;28;20445;-74
2022/08/09 05:27:25;;;;;;;5.67;3.03;;;;;;;19.23;75.71;102169.06;4993080;28;20957;-74
2022/08/09 05:29:52;;;;;;;5.20;1.90;;;;;;;19.30;77.25;102175.72;4995606;28;20475;-74
2022/08/09 05:32:19;;;;;;;6.73;2.73;;;;;;;19.31;76.63;102171.84;4996904;28;20451;-74
2022/08/09 05:34:45;;;;;;;6.33;2.40;;;;;;;19.34;75.26;102173.91;4997013;28;20468;-74
2022/08/09 05:37:14;;;;;;;3.90;2.10;;;;;;;19.34;75.12;102181.34;4996664;28;21002;-73
2022/08/09 05:39:41;;;;;;;5.47;2.53;;;;;;;19.42;75.00;102178.63;4996805;28;20471;-74
2022/08/09 05:42:08;;;;;;;4.50;2.40;;;;;;;19.46;75.15;102189.78;4996818;28;20824;-72
2022/08/09 05:44:35;;;;;;;5.50;2.37;;;;;;;19.45;74.61;102190.13;4996507;28;20965;-73
2022/08/09 05:47:02;;;;;;;5.17;2.90;;;;;;;19.52;74.88;102179.44;4996767;28;20527;-72
2022/08/09 05:49:28;;;;;;;5.13;2.47;;;;;;;19.56;74.49;102191.41;4996677;28;20468;-73
2022/08/09 05:55:17;;;;;;;3.97;1.87;;;;;;;19.70;75.13;102181.09;4996738;28;20831;-72
2022/08/09 05:57:44;;;;;;;5.87;2.87;;;;;;;19.78;74.45;102187.72;4996569;28;20437;-73
2022/08/09 06:00:12;;;;;;;3.60;1.90;;;;;;;19.84;74.56;102186.44;4996073;28;20460;-72
2022/08/09 06:02:39;;;;;;;4.63;2.20;;;;;;;19.89;73.80;102191.75;4996403;28;20473;-72
2022/08/09 06:05:07;;;;;;;4.87;2.30;;;;;;;19.97;73.96;102192.91;4996418;28;20444;-72
2022/08/09 06:07:34;;;;;;;6.20;2.60;;;;;;;20.05;74.30;102194.81;4996393;28;20822;-73
2022/08/09 06:10:00;;;;;;;3.40;1.63;;;;;;;20.14;73.80;102195.59;4997381;28;20509;-72
2022/08/09 06:12:28;;;;;;;4.90;2.03;;;;;;;20.20;72.69;102197.06;4996178;28;20452;-72
2022/08/09 06:14:54;;;;;;;4.00;2.23;;;;;;;20.21;70.98;102190.41;4996218;28;20452;-72
2022/08/09 06:17:22;;;;;;;5.73;2.47;;;;;;;20.23;71.09;102199.16;4996132;28;20445;-73
2022/08/09 06:19:48;;;;;;;7.00;2.73;;;;;;;20.32;71.20;102191.69;4995927;28;20514;-72
2022/08/09 06:22:14;;;;;;;5.47;2.23;;;;;;;20.35;71.88;102202.03;4995952;28;20879;-72
2022/08/09 06:24:41;;;;;;;5.63;2.40;;;;;;;20.30;70.31;102204.97;4996155;28;20445;-75
2022/08/09 06:27:07;;;;;;;5.60;2.10;;;;;;;20.37;70.82;102212.72;4996002;28;20495;-73
2022/08/09 06:29:35;;;;;;;4.20;2.40;;;;;;;20.46;71.60;102204.44;4995854;28;20472;-72
2022/08/09 06:32:02;;;;;;;3.90;2.40;;;;;;;20.50;70.61;102209.00;4995549;28;20796;-73
2022/08/09 06:34:28;;;;;;;5.07;2.30;;;;;;;20.59;70.26;102208.97;4995826;28;20485;-72
2022/08/09 06:36:55;;;;;;;3.73;1.80;;;;;;;20.68;69.21;102209.75;4995690;28;20448;-76
2022/08/09 06:39:22;;;;;;;4.90;2.50;;;;;;;20.72;67.47;102221.72;4995940;28;20560;-72
2022/08/09 06:41:48;;;;;;;5.80;2.20;;;;;;;20.85;68.56;102225.38;4994836;28;20951;-75
2022/08/09 06:44:15;;;;;;;3.57;1.60;;;;;;;20.86;68.46;102221.50;4995654;28;20444;-73
2022/08/09 06:46:43;;;;;;;4.63;1.87;;;;;;;20.92;66.80;102231.19;4995639;28;20527;-72
2022/08/09 06:49:09;;;;;;;4.70;2.33;;;;;;;20.99;66.67;102219.66;4995475;28;20519;-72
2022/08/09 06:51:37;;;;;;;4.20;1.80;;;;;;;21.04;65.76;102219.47;4995237;28;20448;-72
2022/08/09 06:54:03;;;;;;;5.03;2.60;;;;;;;20.96;64.46;102234.09;4995374;28;20543;-72
2022/08/09 06:56:30;;;;;;;3.90;2.30;;;;;;;20.95;63.13;102235.25;4995418;28;20452;-72
2022/08/09 06:58:57;;;;;;;4.00;1.50;;;;;;;21.10;62.91;102227.19;4995384;28;20477;-72
2022/08/09 07:01:23;;;;;;;3.70;1.80;;;;;;;21.17;64.04;102232.19;4995348;28;20468;-72
2022/08/09 07:03:51;;;;;;;6.20;2.17;;;;;;;21.26;63.43;102224.69;4994976;28;20966;-72
2022/08/09 07:06:17;;;;;;;3.57;1.53;;;;;;;21.33;62.13;102236.00;4994985;28;20939;-72
2022/08/09 07:08:44;;;;;;;3.67;1.70;;;;;;;21.39;62.50;102234.69;4995000;28;20441;-72
2022/08/09 07:11:10;;;;;;;4.17;2.10;;;;;;;21.39;61.79;102233.88;4995173;28;20429;-72
2022/08/09 07:13:37;;;;;;;4.03;1.77;;;;;;;21.39;61.73;102236.66;4994752;28;20997;-72
2022/08/09 07:16:03;;;;;;;5.60;2.00;;;;;;;21.36;62.43;102232.59;4995176;28;20451;-72
2022/08/09 07:18:30;;;;;;;3.00;1.30;;;;;;;21.39;61.76;102244.91;4995003;28;20449;-72
2022/08/09 07:20:58;;;;;;;3.83;1.90;;;;;;;21.41;63.54;102237.91;4995053;28;20472;-72
2022/08/09 07:23:24;;;;;;;5.17;2.00;;;;;;;21.47;62.28;102237.72;4994881;28;20452;-72
2022/08/09 07:25:51;;;;;;;4.30;1.90;;;;;;;21.54;62.36;102243.50;4995059;28;20445;-72
2022/08/09 07:28:17;;;;;;;3.47;1.63;;;;;;;21.57;61.60;102240.09;4994778;28;20500;-72
2022/08/09 07:30:43;;;;;;;3.73;1.90;;;;;;;21.66;61.67;102249.09;4994740;28;20476;-72
2022/08/09 07:33:10;;;;;;;4.37;1.60;;;;;;;21.72;62.98;102244.19;4994572;28;20539;-72
2022/08/09 07:35:36;;;;;;;4.27;1.70;;;;;;;21.73;61.79;102246.59;4994638;28;20888;-72
2022/08/09 07:38:04;;;;;;;4.60;1.90;;;;;;;21.77;61.55;102241.22;4994590;28;20445;-72
2022/08/09 07:40:31;;;;;;;6.10;2.30;;;;;;;21.74;61.40;102244.69;4994526;28;20472;-71
2022/08/09 07:42:59;;;;;;;7.07;2.10;;;;;;;21.73;60.46;102246.59;4994531;28;20441;-72
2022/08/09 07:45:27;;;;;;;6.50;2.00;;;;;;;21.76;60.54;102245.94;4994505;28;20452;-72
2022/08/09 07:47:58;;;;;;;3.67;1.77;;;;;;;21.77;60.83;102244.78;4994527;28;20456;-72
2022/08/09 07:50:27;;;;;;;3.80;1.50;;;;;;;21.84;58.28;102249.78;4994328;28;20472;-72
2022/08/09 07:52:54;;;;;;;4.10;1.80;;;;;;;21.91;57.54;102250.84;4993470;28;20445;-73
2022/08/09 07:55:22;;;;;;;3.20;1.50;;;;;;;21.96;57.79;102246.25;4994005;28;20958;-74
2022/08/09 07:57:49;;;;;;;3.73;1.50;;;;;;;21.98;57.67;102249.50;4994254;28;20471;-74
2022/08/09 08:00:17;;;;;;;4.67;1.67;;;;;;;21.95;56.02;102252.91;4994149;28;20460;-72
2022/08/09 08:02:43;;;;;;;3.97;1.90;;;;;;;22.03;55.25;102252.03;4994336;28;20468;-74
2022/08/09 08:05:10;;;;;;;3.00;1.33;;;;;;;22.10;56.16;102250.34;4994393;28;20484;-75
2022/08/09 08:07:36;;;;;;;3.23;1.50;;;;;;;22.16;56.90;102250.97;4994516;28;20481;-77
2022/08/09 08:10:03;;;;;;;3.53;1.50;;;;;;;22.15;56.16;102243.84;4993880;28;20484;-74
2022/08/09 08:12:32;;;;;;;4.00;1.67;;;;;;;22.25;56.14;102251.69;4994141;28;20499;-73
2022/08/09 08:14:59;;;;;;;4.07;1.70;;;;;;;22.33;56.36;102245.28;4994069;28;20485;-75
2022/08/09 08:17:25;;;;;;;5.93;1.67;;;;;;;22.35;55.94;102247.69;4994112;28;20535;-73
2022/08/09 08:19:51;;;;;;;3.20;1.30;;;;;;;22.44;54.41;102244.84;4993985;28;20476;-74
2022/08/09 08:22:18;;;;;;;4.70;1.73;;;;;;;22.54;54.39;102247.19;4993901;28;20457;-74
2022/08/09 08:24:45;;;;;;;7.00;2.17;;;;;;;22.50;54.43;102240.75;4994186;28;20445;-74
2022/08/09 08:27:12;;;;;;;3.00;1.30;;;;;;;22.56;52.71;102250.41;4993619;28;20957;-74
2022/08/09 08:29:39;;;;;;;7.03;1.30;;;;;;;22.63;53.00;102245.13;4993864;28;20468;-74
2022/08/09 08:32:06;;;;;;;4.00;1.30;;;;;;;22.70;52.38;102244.56;4993780;28;20476;-74
2022/08/09 08:34:33;;;;;;;6.70;1.87;;;;;;;22.80;53.32;102244.09;4993772;28;20484;-74
2022/08/09 08:36:59;;;;;;;5.70;1.50;;;;;;;22.81;51.84;102243.78;4993864;28;20438;-74
2022/08/09 08:39:25;;;;;;;4.73;1.30;;;;;;;22.90;53.03;102241.75;4993665;28;20473;-73
2022/08/09 08:41:53;;;;;;;3.23;1.60;;;;;;;22.99;51.18;102243.59;4993803;28;20444;-73
2022/08/09 08:44:21;;;;;;;3.00;1.20;;;;;;;23.11;51.66;102249.94;4993737;28;20444;-73
2022/08/09 08:46:50;;;;;;;3.03;1.27;;;;;;;23.20;52.41;102238.75;4993440;28;20942;-73
2022/08/09 08:49:17;;;;;;;2.80;1.00;;;;;;;23.27;51.26;102244.47;4993294;28;21005;-74
2022/08/09 08:51:44;;;;;;;2.70;1.10;;;;;;;23.35;51.73;102240.00;4994003;28;20447;-74
2022/08/09 08:54:13;;;;;;;3.13;1.23;;;;;;;23.41;52.10;102247.69;4993649;28;20492;-73
2022/08/09 08:56:40;;;;;;;3.33;1.30;;;;;;;23.54;51.17;102253.22;4993652;28;20452;-74
2022/08/09 08:59:09;;;;;;;2.40;0.90;;;;;;;23.60;50.54;102249.06;4993551;28;20460;-74
2022/08/09 09:01:36;;;;;;;4.47;1.27;;;;;;;23.60;49.57;102249.06;4993629;28;20445;-74
2022/08/09 09:04:08;;;;;;;2.67;1.20;;;;;;;23.57;48.85;102246.97;4994627;28;20440;-74
2022/08/09 09:06:36;;;;;;;2.90;1.10;;;;;;;23.57;48.54;102245.03;4997544;28;20543;-74
2022/08/09 09:09:05;;;;;;;2.60;1.10;;;;;;;23.66;48.54;102245.72;4997167;28;20488;-74
2022/08/09 09:11:33;;;;;;;3.70;1.60;;;;;;;23.78;49.56;102249.63;4997429;28;20554;-74
2022/08/09 09:14:03;;;;;;;3.13;1.37;;;;;;;23.86;50.84;102255.00;4997246;28;20828;-74
2022/08/09 09:16:32;;;;;;;3.30;1.30;;;;;;;23.89;49.58;102257.06;4997276;28;20445;-74
2022/08/09 09:18:59;;;;;;;2.63;1.10;;;;;;;23.96;49.47;102256.47;4997438;28;20452;-74
2022/08/09 09:21:27;;;;;;;3.03;1.03;;;;;;;24.01;50.20;102256.22;4997218;28;20455;-74
2022/08/09 09:23:53;;;;;;;2.80;1.10;;;;;;;24.06;48.79;102255.16;4997198;28;20459;-74
2022/08/09 09:26:23;;;;;;;2.50;1.00;;;;;;;24.10;47.24;102264.38;4997130;28;20444;-74
2022/08/09 09:28:51;;;;;;;2.60;1.10;;;;;;;24.15;46.19;102255.81;4997012;28;20451;-74
2022/08/09 09:31:19;;;;;;;3.57;1.40;;;;;;;24.25;46.92;102248.94;4997385;28;20453;-73
2022/08/09 09:33:46;;;;;;;5.73;1.30;;;;;;;24.22;46.08;102249.69;4996991;28;20489;-73
2022/08/09 09:36:13;;;;;;;3.30;1.07;;;;;;;24.31;45.49;102253.91;4996967;28;20448;-74
2022/08/09 09:38:44;;;;;;;2.97;1.40;;;;;;;24.31;46.29;102253.91;4996846;28;20445;-74
2022/08/09 09:41:11;;;;;;;3.53;1.60;;;;;;;24.45;47.49;102249.94;4996911;28;20429;-73
2022/08/09 09:43:37;;;;;;;3.13;1.30;;;;;;;24.54;47.55;102242.25;4996948;28;20440;-73
2022/08/09 09:46:04;;;;;;;5.73;1.40;;;;;;;24.58;46.53;102248.69;4996828;28;20452;-74
2022/08/09 09:48:31;;;;;;;3.47;1.43;;;;;;;24.65;45.42;102246.88;4997052;28;20448;-74
2022/08/09 09:50:57;;;;;;;3.20;1.30;;;;;;;24.62;44.70;102250.41;4996717;28;20467;-74
2022/08/09 09:53:26;;;;;;;3.33;1.40;;;;;;;24.70;45.10;102250.56;4996794;28;20437;-74
2022/08/09 09:55:58;;;;;;;2.90;1.10;;;;;;;24.74;46.14;102246.72;4996645;28;20437;-74
2022/08/09 09:58:26;;;;;;;2.63;1.33;;;;;;;24.77;46.25;102247.97;4996652;28;20448;-73
2022/08/09 10:00:55;;;;;;;2.63;1.13;;;;;;;24.81;44.61;102243.34;4996739;28;20460;-73
2022/08/09 10:03:39;;;;;;;3.80;1.33;;;;;;;24.87;46.00;102242.69;4996575;28;20447;-73
2022/08/09 10:06:05;;;;;;;2.70;1.00;;;;;;;24.94;45.49;102242.06;4996112;28;20452;-74
2022/08/09 10:08:34;;;;;;;3.40;1.10;;;;;;;25.03;45.51;102239.13;4996370;28;20445;-73
2022/08/09 10:11:16;;;;;;;3.23;1.30;;;;;;;25.13;43.32;102233.03;4996662;28;20448;-73
2022/08/09 10:13:43;;;;;;;3.17;1.20;;;;;;;25.18;45.52;102235.53;4996311;28;20449;-73
2022/08/09 10:16:10;;;;;;;3.17;1.27;;;;;;;25.20;43.99;102235.19;4995328;28;20447;-74
2022/08/09 10:18:36;;;;;;;2.87;1.30;;;;;;;25.20;44.71;102233.22;4995884;28;20449;-73
2022/08/09 10:21:08;;;;;;;3.90;1.37;;;;;;;25.37;44.99;102227.28;4996299;28;20445;-73
2022/08/09 10:23:34;;;;;;;3.00;1.57;;;;;;;25.47;44.60;102220.34;4996223;28;20789;-75
2022/08/09 10:26:03;;;;;;;4.30;1.60;;;;;;;25.60;44.84;102230.13;4995797;28;20453;-74
2022/08/09 10:28:31;;;;;;;4.77;1.17;;;;;;;25.73;43.06;102225.25;4996088;28;20449;-74
2022/08/09 10:30:58;;;;;;;3.10;1.10;;;;;;;25.81;41.63;102229.00;4995982;28;20440;-74
2022/08/09 10:33:25;;;;;;;3.27;1.37;;;;;;;25.96;42.38;102221.78;4995919;28;20456;-73
2022/08/09 10:35:52;;;;;;;2.70;1.20;;;;;;;26.02;43.11;102220.28;4995826;28;20496;-74
2022/08/09 10:38:19;;;;;;;3.20;1.40;;;;;;;26.15;42.69;102216.19;4995765;28;20803;-73
2022/08/09 10:40:46;;;;;;;4.10;1.23;;;;;;;26.27;43.33;102213.25;4995636;28;20472;-74
2022/08/09 10:43:14;;;;;;;3.27;1.50;;;;;;;26.28;40.59;102220.41;4995886;28;20433;-73
2022/08/09 10:45:44;;;;;;;2.90;1.20;;;;;;;26.34;40.86;102218.09;4995405;28;20448;-73
2022/08/09 10:48:15;;;;;;;3.23;1.27;;;;;;;26.40;40.38;102225.78;4995721;28;20437;-73
2022/08/09 10:51:10;;;;;;;2.70;1.10;;;;;;;26.52;40.94;102213.72;4995634;28;20468;-73
2022/08/09 10:53:58;;;;;;;4.00;1.30;;;;;;;26.64;40.01;102218.28;4995452;28;20899;-72
2022/08/09 10:56:26;;;;;;;2.50;1.00;;;;;;;26.86;42.09;102214.66;4995834;28;20537;-73
2022/08/09 10:58:56;;;;;;;3.17;1.30;;;;;;;27.08;41.50;102224.13;4995195;28;20994;-72
2022/08/09 11:01:41;;;;;;;2.97;1.13;;;;;;;27.09;38.63;102225.81;4995793;28;20445;-74
2022/08/09 11:04:19;;;;;;;3.17;1.47;;;;;;;27.26;40.08;102215.28;4994410;28;20452;-74
2022/08/09 11:06:47;;;;;;;3.47;1.47;;;;;;;27.64;39.76;102208.63;4995140;28;20918;-68
2022/08/09 11:09:17;;;;;;;5.47;1.87;;;;;;;27.88;38.35;102210.13;4994837;28;20479;-73
2022/08/09 11:12:09;;;;;;;2.63;1.17;;;;;;;28.13;39.45;102210.41;4995181;28;20452;-71
2022/08/09 11:14:40;;;;;;;6.77;1.50;;;;;;;28.35;37.64;102208.69;4986689;28;20493;-73
2022/08/09 11:17:39;;;;;;;2.97;1.23;;;;;;;28.32;36.62;102215.78;4995168;28;20429;-73
2022/08/09 11:20:07;;;;;;;3.37;1.27;;;;;;;28.50;37.27;102215.16;4984702;28;20527;-71
2022/08/09 11:22:58;;;;;;;3.67;1.40;;;;;;;28.09;37.39;102213.16;4995188;28;20457;-73
2022/08/09 11:25:38;;;;;;;3.67;1.57;;;;;;;27.53;37.90;102211.28;4995085;28;20448;-73
2022/08/09 11:28:33;;;;;;;3.80;1.43;;;;;;;27.28;38.52;102205.41;4995046;28;20437;-73
2022/08/09 11:31:02;;;;;;;3.23;1.40;;;;;;;26.83;39.61;102211.84;4995140;28;20846;-75
2022/08/09 11:33:41;;;;;;;3.17;1.43;;;;;;;26.66;39.65;102208.41;4994880;28;20452;-73
2022/08/09 11:36:09;;;;;;;4.40;1.70;;;;;;;26.61;39.71;102213.47;4994714;28;20472;-73